KHSB/HSB METAR and TAF weather

Enter ICAO airport designator
Station Type Date Time Source
KHSB METAR 2019/04/26 03:35 UTC NOAA

KHSB 260335Z AUTO 30010KT 5SM RA BKN010 BKN013 OVC055 15/15 A2974 RMK AO2 P0002 T01450145


Station Type Date Time Source
KHSB Decoded METAR 2019/04/26 03:35 UTC NOAA

Harrisburg, Harrisburg-Raleigh Airport, IL, United States (KHSB) 37-48-41N 088-32-57W
Apr 25, 2019 - 11:35 PM EDT / 2019.04.26 0335 UTC
Wind: from the WNW (300 degrees) at 12 MPH (10 KT):0
Visibility: 5 mile(s):0
Sky conditions: overcast
Weather: rain
Precipitation last hour: 0.02 inches
Temperature: 58.1 F (14.5 C)
Dew Point: 58.1 F (14.5 C)
Relative Humidity: 100%
Pressure (altimeter): 29.74 in. Hg (1007 hPa)
ob: KHSB 260335Z AUTO 30010KT 5SM RA BKN010 BKN013 OVC055 15/15 A2974 RMK AO2 P0002 T01450145
cycle: 3

Station Type Date Time Source
KHSB TAF UTC NOAA

Error!

Example: see airport list